createdAt,value
2023-04-15T00:01:03.960Z,100965.43
2023-04-15T00:04:41.931Z,100961.05
2023-04-15T00:08:19.655Z,100957.24
2023-04-15T00:11:57.756Z,100948.87
2023-04-15T00:15:34.510Z,100947.64
2023-04-15T00:19:12.996Z,100952.70
2023-04-15T00:22:49.821Z,100957.95
2023-04-15T00:26:28.554Z,100958.64
2023-04-15T00:30:05.934Z,100958.63
2023-04-15T00:33:42.900Z,100958.94
2023-04-15T00:37:20.572Z,100955.05
2023-04-15T00:40:59.305Z,100954.27
2023-04-15T00:44:36.149Z,100952.14
2023-04-15T00:48:14.153Z,100949.30
2023-04-15T00:51:51.640Z,100947.02
2023-04-15T00:55:29.335Z,100950.84
2023-04-15T00:59:07.337Z,100946.12
2023-04-15T01:02:45.116Z,100946.65
2023-04-15T01:06:22.398Z,100940.55
2023-04-15T01:10:00.199Z,100940.35
2023-04-15T01:13:37.649Z,100943.25
2023-04-15T01:17:15.487Z,100943.08
2023-04-15T01:20:53.311Z,100939.94
2023-04-15T01:24:31.922Z,100932.66
2023-04-15T01:28:09.696Z,100939.13
2023-04-15T01:31:53.791Z,100927.16
2023-04-15T01:35:24.198Z,100928.90
2023-04-15T01:39:01.788Z,100934.95
2023-04-15T01:42:38.988Z,100937.65
2023-04-15T01:46:16.984Z,100936.17
2023-04-15T01:49:54.050Z,100935.59
2023-04-15T01:53:32.488Z,100936.05
2023-04-15T01:57:10.070Z,100938.48
2023-04-15T02:00:47.361Z,100938.59
2023-04-15T02:04:25.125Z,100942.55
2023-04-15T02:08:03.882Z,100944.35
2023-04-15T02:11:40.483Z,100953.08
2023-04-15T02:15:18.234Z,100953.59
2023-04-15T02:18:55.902Z,100953.80
2023-04-15T02:22:33.760Z,100948.24
2023-04-15T02:26:11.142Z,100945.65
2023-04-15T02:29:51.192Z,100953.32
2023-04-15T02:33:26.365Z,100950.90
2023-04-15T02:37:04.809Z,100949.55
2023-04-15T02:40:42.343Z,100945.39
2023-04-15T02:44:23.704Z,100955.06
2023-04-15T02:47:56.961Z,100951.09
2023-04-15T02:51:54.839Z,100949.96
2023-04-15T02:55:12.744Z,100951.07
2023-04-15T02:58:50.858Z,100948.51
2023-04-15T03:02:28.013Z,100950.59
2023-04-15T03:06:05.969Z,100956.21
2023-04-15T03:09:43.095Z,100957.48
2023-04-15T03:13:21.563Z,100960.98
2023-04-15T03:16:59.683Z,100962.21
2023-04-15T03:20:36.633Z,100961.52
2023-04-15T03:24:13.944Z,100959.91
2023-04-15T03:27:52.129Z,100963.75
2023-04-15T03:31:29.285Z,100966.88
2023-04-15T03:35:07.465Z,100967.02
2023-04-15T03:38:44.429Z,100967.34
2023-04-15T03:42:22.387Z,100968.39
2023-04-15T03:46:01.856Z,100964.05
2023-04-15T03:49:37.918Z,100964.06
2023-04-15T03:53:16.164Z,100962.16
2023-04-15T03:56:53.236Z,100969.15
2023-04-15T04:00:30.778Z,100964.15
2023-04-15T04:04:08.665Z,100961.89
2023-04-15T04:07:46.378Z,100958.45
2023-04-15T04:11:23.940Z,100961.45
2023-04-15T04:15:01.809Z,100962.91
2023-04-15T04:18:39.384Z,100962.99
2023-04-15T04:22:16.975Z,100967.02
2023-04-15T04:25:54.730Z,100964.94
2023-04-15T04:29:32.119Z,100963.70
2023-04-15T04:33:10.774Z,100966.09
2023-04-15T04:36:47.290Z,100969.34
2023-04-15T04:40:25.954Z,100968.08
2023-04-15T04:44:02.810Z,100970.48
2023-04-15T04:47:40.910Z,100976.02
2023-04-15T04:51:18.596Z,100975.48
2023-04-15T04:54:55.859Z,100980.17
2023-04-15T04:58:33.452Z,100979.63
2023-04-15T05:02:11.410Z,100981.86
2023-04-15T05:05:49.450Z,100983.73
2023-04-15T05:09:26.871Z,100989.30
2023-04-15T05:13:04.298Z,100988.77
2023-04-15T05:16:44.049Z,100991.77
2023-04-15T05:20:19.986Z,100990.42
2023-04-15T05:23:57.285Z,100992.23
2023-04-15T05:27:34.915Z,100992.44
2023-04-15T05:31:12.665Z,100993.92
2023-04-15T05:34:50.579Z,100997.85
2023-04-15T05:38:28.374Z,101003.29
2023-04-15T05:42:06.309Z,101002.88
2023-04-15T05:45:43.321Z,101005.29
2023-04-15T05:49:21.349Z,101002.61
2023-04-15T05:52:58.651Z,101002.65
2023-04-15T05:56:36.221Z,101001.91
2023-04-15T06:00:15.410Z,101001.80
2023-04-15T06:03:52.119Z,101010.08
2023-04-15T06:07:29.692Z,101007.16
2023-04-15T06:11:07.439Z,101008.61
2023-04-15T06:14:44.682Z,101012.76
2023-04-15T06:18:22.400Z,101015.04
2023-04-15T06:22:00.521Z,101014.49
2023-04-15T06:25:37.637Z,101014.81
2023-04-15T06:29:15.589Z,101010.45
2023-04-15T06:32:53.634Z,101006.48
2023-04-15T06:36:31.236Z,101009.77
2023-04-15T06:40:10.220Z,101004.92
2023-04-15T06:43:46.329Z,101012.77
2023-04-15T06:47:23.668Z,101020.29
2023-04-15T06:51:02.088Z,101031.09
2023-04-15T06:54:39.484Z,101038.06
2023-04-15T06:58:16.544Z,101041.02
2023-04-15T07:01:54.781Z,101042.94
2023-04-15T07:05:32.581Z,101044.69
2023-04-15T07:09:10.034Z,101045.45
2023-04-15T07:12:49.574Z,101052.48
2023-04-15T07:16:26.616Z,101049.64
2023-04-15T07:20:06.268Z,101053.52
2023-04-15T07:23:40.517Z,101052.04
2023-04-15T07:27:18.240Z,101051.23
2023-04-15T07:30:57.350Z,101054.77
2023-04-15T07:34:33.366Z,101053.58
2023-04-15T07:38:13.636Z,101053.45
2023-04-15T07:41:49.493Z,101053.15
2023-04-15T07:45:27.558Z,101057.15
2023-04-15T07:49:04.856Z,101055.24
2023-04-15T07:52:42.359Z,101062.22
2023-04-15T07:56:19.810Z,101063.38
2023-04-15T07:59:57.269Z,101059.89
2023-04-15T08:03:35.484Z,101059.02
2023-04-15T08:07:12.867Z,101064.64
2023-04-15T08:10:52.475Z,101058.71
2023-04-15T08:14:28.141Z,101061.89
2023-04-15T08:18:05.448Z,101058.46
2023-04-15T08:21:43.677Z,101060.95
2023-04-15T08:25:21.321Z,101058.79
2023-04-15T08:28:59.075Z,101063.06
2023-04-15T08:32:55.457Z,101061.28
2023-04-15T08:36:14.996Z,101059.66
2023-04-15T08:39:51.536Z,101063.65
2023-04-15T08:43:34.737Z,101066.77
2023-04-15T08:47:09.417Z,101066.90
2023-04-15T08:50:45.621Z,101069.23
2023-04-15T08:54:23.098Z,101069.34
2023-04-15T08:58:02.532Z,101070.70
2023-04-15T09:01:38.654Z,101074.66
2023-04-15T09:05:16.921Z,101069.50
2023-04-15T09:08:53.292Z,101076.27
2023-04-15T09:12:31.777Z,101080.73
2023-04-15T09:16:09.562Z,101074.48
2023-04-15T09:19:46.394Z,101074.36
2023-04-15T09:23:23.936Z,101070.73
2023-04-15T09:27:02.627Z,101074.67
2023-04-15T09:30:39.302Z,101076.63
2023-04-15T09:34:18.104Z,101075.60
2023-04-15T09:38:10.012Z,101071.62
2023-04-15T09:41:32.435Z,101073.69
2023-04-15T09:45:12.295Z,101073.84
2023-04-15T09:48:48.423Z,101076.98
2023-04-15T09:52:25.555Z,101078.59
2023-04-15T09:56:03.483Z,101078.60
2023-04-15T09:59:41.062Z,101084.36
2023-04-15T10:03:23.802Z,101090.77
2023-04-15T10:06:57.277Z,101093.67
2023-04-15T10:10:34.604Z,101093.12
2023-04-15T10:14:13.877Z,101089.26
2023-04-15T10:17:53.753Z,101089.40
2023-04-15T10:21:28.675Z,101091.80
2023-04-15T10:25:07.366Z,101093.79
2023-04-15T10:28:42.235Z,101093.12
2023-04-15T10:32:22.179Z,101094.68
2023-04-15T10:35:58.502Z,101094.19
2023-04-15T10:39:38.442Z,101095.52
2023-04-15T10:43:27.472Z,101092.98
2023-04-15T10:46:52.855Z,101092.60
2023-04-15T10:50:32.855Z,101094.11
2023-04-15T10:54:10.651Z,101094.30
2023-04-15T10:57:44.423Z,101095.77
2023-04-15T11:01:23.600Z,101094.92
2023-04-15T11:04:59.339Z,101095.08
2023-04-15T11:08:57.069Z,101096.79
2023-04-15T11:12:14.379Z,101096.97
2023-04-15T11:15:55.763Z,101095.98
2023-04-15T11:19:37.431Z,101100.92
2023-04-15T11:23:32.095Z,101096.83
2023-04-15T11:26:45.062Z,101100.14
2023-04-15T11:30:28.910Z,101098.26
2023-04-15T11:34:01.604Z,101100.50
2023-04-15T11:37:38.516Z,101103.94
2023-04-15T11:41:15.649Z,101103.59
2023-04-15T11:45:18.368Z,101107.42
2023-04-15T11:48:33.223Z,101109.89
2023-04-15T11:52:12.648Z,101112.36
2023-04-15T11:55:48.833Z,101109.98
2023-04-15T11:59:28.186Z,101111.46
2023-04-15T12:03:26.501Z,101114.79
2023-04-15T12:06:41.836Z,101118.73
2023-04-15T12:10:19.091Z,101117.50
2023-04-15T12:13:57.767Z,101125.23
2023-04-15T12:17:51.031Z,101128.96
2023-04-15T12:21:12.297Z,101136.40
2023-04-15T12:24:57.581Z,101132.86
2023-04-15T12:28:31.032Z,101133.87
2023-04-15T12:32:06.829Z,101137.27
2023-04-15T12:35:42.639Z,101137.20
2023-04-15T12:39:30.469Z,101138.55
2023-04-15T12:42:57.674Z,101137.65
2023-04-15T12:46:35.804Z,101142.05
2023-04-15T12:50:13.476Z,101140.19
2023-04-15T12:53:51.360Z,101145.42
2023-04-15T12:57:28.951Z,101152.42
2023-04-15T13:01:07.046Z,101156.96
2023-04-15T13:04:44.298Z,101156.59
2023-04-15T13:08:21.882Z,101159.12
2023-04-15T13:11:59.663Z,101154.58
2023-04-15T13:15:37.249Z,101162.55
2023-04-15T13:19:14.937Z,101162.10
2023-04-15T13:22:53.425Z,101165.34
2023-04-15T13:26:31.418Z,101165.11
2023-04-15T13:30:08.691Z,101164.27
2023-04-15T13:33:45.529Z,101166.08
2023-04-15T13:37:30.634Z,101169.27
2023-04-15T13:41:01.205Z,101169.40
2023-04-15T13:44:38.757Z,101168.81
2023-04-15T13:48:16.362Z,101168.31
2023-04-15T13:51:54.270Z,101170.60
2023-04-15T13:55:31.901Z,101170.90
2023-04-15T13:59:09.611Z,101172.21
2023-04-15T14:02:47.220Z,101174.88
2023-04-15T14:06:25.090Z,101177.23
2023-04-15T14:10:02.424Z,101179.37
2023-04-15T14:13:39.908Z,101181.50
2023-04-15T14:17:17.750Z,101187.64
2023-04-15T14:20:55.677Z,101191.23
2023-04-15T14:24:33.196Z,101187.80
2023-04-15T14:28:11.102Z,101192.00
2023-04-15T14:32:11.552Z,101191.85
2023-04-15T14:35:26.885Z,101195.05
2023-04-15T14:39:04.372Z,101199.48
2023-04-15T14:42:41.623Z,101204.41
2023-04-15T14:46:19.092Z,101204.31
2023-04-15T14:49:57.114Z,101206.80
2023-04-15T14:53:34.926Z,101208.30
2023-04-15T14:57:12.568Z,101213.98
2023-04-15T15:00:50.109Z,101214.25
2023-04-15T15:04:27.968Z,101215.09
2023-04-15T15:08:07.822Z,101215.42
2023-04-15T15:11:42.976Z,101219.62
2023-04-15T15:18:58.119Z,101227.05
2023-04-15T15:22:36.156Z,101232.15
2023-04-15T15:26:13.709Z,101231.61
2023-04-15T15:29:51.638Z,101236.86
2023-04-15T15:33:30.233Z,101238.55
2023-04-15T15:37:06.568Z,101239.27
2023-04-15T15:40:44.482Z,101242.48
2023-04-15T15:44:21.971Z,101250.59
2023-04-15T15:48:00.492Z,101250.14
2023-04-15T15:51:37.534Z,101255.27
2023-04-15T15:55:15.093Z,101258.27
2023-04-15T15:58:52.941Z,101263.48
2023-04-15T16:02:59.842Z,101265.05
2023-04-15T16:06:08.284Z,101267.67
2023-04-15T16:09:46.271Z,101270.99
2023-04-15T16:13:23.712Z,101275.67
2023-04-15T16:17:01.450Z,101274.90
2023-04-15T16:20:39.821Z,101282.30
2023-04-15T16:24:17.287Z,101282.19
2023-04-15T16:28:03.530Z,101287.20
2023-04-15T16:31:32.739Z,101293.61
2023-04-15T16:35:10.369Z,101298.25
2023-04-15T16:38:48.963Z,101298.55
2023-04-15T16:42:25.180Z,101304.66
2023-04-15T16:46:02.887Z,101310.58
2023-04-15T16:49:40.436Z,101306.55
2023-04-15T16:53:18.304Z,101308.11
2023-04-15T16:56:59.419Z,101311.09
2023-04-15T17:00:33.478Z,101315.02
2023-04-15T17:04:11.613Z,101316.55
2023-04-15T17:07:48.676Z,101317.71
2023-04-15T17:11:28.334Z,101320.86
2023-04-15T17:15:04.269Z,101324.64
2023-04-15T17:18:41.849Z,101324.41
2023-04-15T17:22:19.983Z,101324.23
2023-04-15T17:25:56.899Z,101327.14
2023-04-15T17:29:34.515Z,101335.30
2023-04-15T17:33:59.129Z,101339.00
2023-04-15T17:36:51.561Z,101340.11
2023-04-15T17:40:46.565Z,101345.39
2023-04-15T17:44:05.329Z,101346.79
2023-04-15T17:47:43.286Z,101349.77
2023-04-15T17:51:22.075Z,101353.44
2023-04-15T17:54:58.764Z,101356.36
2023-04-15T17:58:35.927Z,101360.48
2023-04-15T18:02:14.880Z,101364.82
2023-04-15T18:05:51.650Z,101369.75
2023-04-15T18:09:29.481Z,101381.05
2023-04-15T18:13:07.123Z,101386.02
2023-04-15T18:16:44.702Z,101390.52
2023-04-15T18:20:22.264Z,101395.13
2023-04-15T18:23:59.872Z,101398.45
2023-04-15T18:27:39.417Z,101405.80
2023-04-15T18:31:15.192Z,101410.60
2023-04-15T18:34:53.144Z,101412.27
2023-04-15T18:38:30.836Z,101415.08
2023-04-15T18:42:08.387Z,101418.95
2023-04-15T18:45:46.086Z,101422.31
2023-04-15T18:49:27.565Z,101421.13
2023-04-15T18:53:01.357Z,101427.26
2023-04-15T18:56:39.373Z,101433.37
2023-04-15T19:00:17.546Z,101435.13
2023-04-15T19:03:54.089Z,101434.30
2023-04-15T19:07:32.200Z,101439.36
2023-04-15T19:11:09.527Z,101442.41
2023-04-15T19:14:47.447Z,101448.20
2023-04-15T19:18:24.992Z,101448.25
2023-04-15T19:22:03.895Z,101452.86
2023-04-15T19:25:40.240Z,101457.16
2023-04-15T19:29:18.704Z,101457.64
2023-04-15T19:32:55.926Z,101456.92
2023-04-15T19:36:33.462Z,101457.82
2023-04-15T19:40:11.076Z,101459.08
2023-04-15T19:43:48.603Z,101459.11
2023-04-15T19:47:27.561Z,101461.73
2023-04-15T19:51:04.587Z,101462.75
2023-04-15T19:54:42.123Z,101458.36
2023-04-15T19:58:19.884Z,101460.38
2023-04-15T20:01:57.609Z,101462.45
2023-04-15T20:05:34.741Z,101467.12
2023-04-15T20:09:12.524Z,101464.98
2023-04-15T20:12:52.801Z,101466.86
2023-04-15T20:16:27.966Z,101474.04
2023-04-15T20:20:07.640Z,101476.18
2023-04-15T20:23:43.323Z,101475.18
2023-04-15T20:27:21.403Z,101478.33
2023-04-15T20:31:00.548Z,101476.77
2023-04-15T20:34:36.690Z,101475.83
2023-04-15T20:38:16.543Z,101483.93
2023-04-15T20:41:51.354Z,101480.39
2023-04-15T20:45:29.450Z,101480.33
2023-04-15T20:49:07.234Z,101479.80
2023-04-15T20:52:44.392Z,101479.61
2023-04-15T20:56:22.242Z,101479.05
2023-04-15T20:59:59.678Z,101482.13
2023-04-15T21:03:38.081Z,101482.93
2023-04-15T21:07:16.139Z,101484.86
2023-04-15T21:10:53.105Z,101490.09
2023-04-15T21:14:30.600Z,101485.52
2023-04-15T21:18:08.315Z,101491.77
2023-04-15T21:21:46.416Z,101492.94
2023-04-15T21:25:23.593Z,101492.19
2023-04-15T21:29:01.410Z,101494.75
2023-04-15T21:32:39.051Z,101499.59
2023-04-15T21:36:16.702Z,101500.40
2023-04-15T21:39:54.275Z,101497.35
2023-04-15T21:43:32.279Z,101501.11
2023-04-15T21:47:09.498Z,101502.83
2023-04-15T21:50:47.357Z,101506.02
2023-04-15T21:54:24.981Z,101505.42
2023-04-15T21:58:02.654Z,101505.96
2023-04-15T22:01:40.157Z,101511.08
2023-04-15T22:05:18.725Z,101512.96
2023-04-15T22:08:57.498Z,101520.79
2023-04-15T22:12:33.866Z,101529.30
2023-04-15T22:16:11.854Z,101528.88
2023-04-15T22:19:51.720Z,101531.67
2023-04-15T22:23:26.625Z,101535.57
2023-04-15T22:27:04.578Z,101540.29
2023-04-15T22:30:42.965Z,101542.84
2023-04-15T22:34:22.482Z,101550.16
2023-04-15T22:37:57.086Z,101549.77
2023-04-15T22:41:34.734Z,101549.55
2023-04-15T22:45:12.864Z,101555.90
2023-04-15T22:48:50.652Z,101559.05
2023-04-15T22:52:30.945Z,101559.19
2023-04-15T22:56:05.880Z,101559.14
2023-04-15T22:59:43.202Z,101566.45
2023-04-15T23:03:21.148Z,101569.38
2023-04-15T23:06:58.579Z,101569.74
2023-04-15T23:10:36.534Z,101569.82
2023-04-15T23:14:13.662Z,101569.71
2023-04-15T23:17:51.570Z,101569.89
2023-04-15T23:21:31.378Z,101571.38
2023-04-15T23:25:07.024Z,101573.84
2023-04-15T23:28:44.207Z,101578.27
2023-04-15T23:32:22.102Z,101578.20
2023-04-15T23:35:59.497Z,101578.84
2023-04-15T23:39:37.654Z,101579.34
2023-04-15T23:43:15.099Z,101578.91
2023-04-15T23:46:53.342Z,101577.98
2023-04-15T23:50:32.736Z,101576.16
2023-04-15T23:54:08.294Z,101574.20
2023-04-15T23:57:46.176Z,101568.71
